Skip Navigation Links Skip Navigation Links

Current Weather

Central Park, New York

For information only: do not use for flight planning or navigation.
Latest weather
Observation time Monday, March 19, 2018 6:51 AM EDT
Local time Monday, March 19, 2018 6:59 AM EDT
Flight conditions Visual Meteorological Conditions
Wind direction North-Northeast (30°)
Wind speed 5 mph
Visibility 10 mi.
Sky condition
Ceiling unlimited
Sky clear
Temperature 34°F
Dewpoint 13°F
Altimeter 29.93 in.Hg
Derived measurements
Relative humidity 41%
Wind chill 30°F
Density altitude -1499 ft.
Sea-level pressure 29.90 in.Hg
Fully automated report.
System requires maintenance.
Automated weather observing station with precipitation discriminator.
METAR KNYC 191051Z AUTO 03004KT 10SM CLR 01/M11 A2993 RMK AO2 SLP126 T00111106 $


Location code

InnerDrive.Weather 4.0.6615.0 Release CLR 4.0.30319.42000
Copyright ©2018 Inner Drive Technology. All rights reserved. Portions Copyright ©1986-2018 David Braverman.

Find weather

Site navigation

Skip Navigation Links

Place info

Page info

PayPal - The safer, easier way to pay online!

Return home.

Copyright ©2018 Inner Drive Technology. Purveyors of fine, hand-crafted computer software. Page printed 2018-03-19T10:59:08 UTC.